Time;durP1;ratioP1;P1;durP2;ratioP2;P2;SDS_P1;SDS_P2;PMS_P1;PMS_P2;Temp;Humidity;BMP_temperature;BMP_pressure;BME280_temperature;BME280_humidity;BME280_pressure;Samples;Min_cycle;Max_cycle;Signal;HPM_P1;HPM_P2
2022/12/08 00:00:11;;;;;;;0.30;0.30;;;-0.50;99.90;;;;;;5064038;28;20044;-77
2022/12/08 00:02:37;;;;;;;0.63;0.55;;;-0.40;99.90;;;;;;5057408;28;20040;-77
2022/12/08 00:10:31;;;;;;;0.40;0.40;;;-0.50;99.90;;;;;;5055781;28;20098;-78
2022/12/08 00:12:57;;;;;;;0.10;0.10;;;-0.60;99.90;;;;;;5058846;28;20020;-77
2022/12/08 00:15:23;;;;;;;1.25;0.38;;;-0.60;99.90;;;;;;5054472;28;20032;-78
2022/12/08 00:17:48;;;;;;;0.20;0.20;;;-0.60;99.90;;;;;;5063445;28;20020;-77
2022/12/08 00:20:14;;;;;;;0.10;0.10;;;-0.60;99.90;;;;;;5067316;28;20039;-77
2022/12/08 00:22:40;;;;;;;0.10;0.10;;;-0.60;99.90;;;;;;5062888;28;20029;-78
2022/12/08 00:25:06;;;;;;;1.23;1.13;;;-0.60;99.90;;;;;;5052459;28;20083;-78
2022/12/08 00:27:31;;;;;;;0.20;0.20;;;-0.60;99.90;;;;;;5055328;28;20024;-77
2022/12/08 00:29:57;;;;;;;0.10;0.10;;;-0.60;99.90;;;;;;5067544;28;20031;-77
2022/12/08 00:32:23;;;;;;;0.10;0.10;;;-0.60;99.90;;;;;;5064377;28;20017;-77
2022/12/08 00:34:48;;;;;;;1.70;1.58;;;-0.60;99.90;;;;;;5060341;28;20043;-77
2022/12/08 00:37:14;;;;;;;0.85;0.57;;;-0.60;99.90;;;;;;5056997;28;20028;-77
2022/12/08 00:39:40;;;;;;;0.20;0.20;;;-0.70;99.90;;;;;;5056327;28;20032;-77
2022/12/08 00:42:11;;;;;;;0.00;0.00;;;-0.80;99.90;;;;;;5054280;28;20086;-77
2022/12/08 00:44:38;;;;;;;0.30;0.30;;;-0.80;99.90;;;;;;5059314;28;20036;-79
2022/12/08 00:47:04;;;;;;;0.20;0.20;;;-0.70;99.90;;;;;;5063996;28;20035;-79
2022/12/08 00:49:29;;;;;;;1.38;1.08;;;-0.70;99.90;;;;;;5053438;28;20039;-80
2022/12/08 00:51:55;;;;;;;0.85;0.85;;;-0.70;99.90;;;;;;5065317;28;20040;-79
2022/12/08 00:54:22;;;;;;;0.30;0.30;;;-0.70;99.90;;;;;;5062136;28;20029;-79
2022/12/08 00:56:48;;;;;;;0.22;0.22;;;-0.80;99.90;;;;;;5061009;28;20028;-78
2022/12/08 00:59:14;;;;;;;0.38;0.25;;;-0.90;99.90;;;;;;5061424;28;20042;-77
2022/12/08 01:01:40;;;;;;;1.35;1.25;;;-0.70;99.90;;;;;;5058764;28;20032;-78
2022/12/08 01:04:07;;;;;;;0.23;0.23;;;-0.80;99.90;;;;;;5061194;28;20059;-78
2022/12/08 01:06:37;;;;;;;0.50;0.50;;;-0.80;99.90;;;;;;5054892;28;20303;-78
2022/12/08 01:09:04;;;;;;;0.63;0.63;;;-0.80;99.90;;;;;;5054000;28;20028;-78
2022/12/08 01:11:31;;;;;;;;;;;-0.80;99.90;;;;;;5062091;28;20025;-79
2022/12/08 01:13:56;;;;;;;0.20;0.20;;;-0.80;99.90;;;;;;5054322;28;20742;-79
2022/12/08 01:16:26;;;;;;;0.30;0.30;;;-0.80;99.90;;;;;;5054489;28;20095;-78
2022/12/08 01:18:51;;;;;;;0.20;0.20;;;-0.90;99.90;;;;;;5051198;28;20064;-78
2022/12/08 01:21:17;;;;;;;0.10;0.10;;;-0.90;99.90;;;;;;5066598;28;20052;-78
2022/12/08 01:23:43;;;;;;;0.73;0.45;;;-0.90;99.90;;;;;;5062323;28;20029;-79
2022/12/08 01:26:11;;;;;;;0.20;0.20;;;-0.90;99.90;;;;;;5057921;28;20033;-79
2022/12/08 01:28:38;;;;;;;0.10;0.10;;;-0.70;99.90;;;;;;5062043;28;20127;-79
2022/12/08 01:31:04;;;;;;;0.20;0.20;;;-0.70;99.90;;;;;;5056146;28;20025;-79
2022/12/08 01:33:31;;;;;;;0.10;0.10;;;-0.80;99.90;;;;;;5053468;28;20036;-79
2022/12/08 01:36:03;;;;;;;0.10;0.10;;;-0.70;99.90;;;;;;5051652;28;20821;-79
2022/12/08 01:38:29;;;;;;;0.43;0.43;;;-0.90;99.90;;;;;;5058039;28;20033;-80
2022/12/08 01:40:54;;;;;;;0.07;0.07;;;-0.80;99.90;;;;;;5059905;28;20024;-80
2022/12/08 01:43:20;;;;;;;0.30;0.30;;;-0.90;99.90;;;;;;5059078;28;20279;-79
2022/12/08 01:45:47;;;;;;;0.50;0.50;;;-0.90;99.90;;;;;;5052589;28;20037;-79
2022/12/08 01:48:17;;;;;;;0.17;0.17;;;-0.90;99.90;;;;;;5059884;28;20730;-80
2022/12/08 01:50:43;;;;;;;0.10;0.10;;;-1.00;99.90;;;;;;5051472;28;20611;-80
2022/12/08 01:53:20;;;;;;;0.10;0.10;;;-0.90;99.90;;;;;;5065106;28;20102;-80
2022/12/08 01:55:48;;;;;;;;;;;-0.90;99.90;;;;;;5049138;28;20028;-80
2022/12/08 01:58:24;;;;;;;0.32;0.32;;;-0.90;99.90;;;;;;5055467;28;19909;-81
2022/12/08 02:00:50;;;;;;;0.10;0.10;;;-0.90;99.90;;;;;;5050838;28;20474;-80
2022/12/08 02:03:30;;;;;;;0.30;0.30;;;-0.90;99.90;;;;;;5049293;28;20041;-79
2022/12/08 02:05:57;;;;;;;0.20;0.20;;;-1.00;99.90;;;;;;5056741;28;20142;-80
2022/12/08 02:08:23;;;;;;;0.20;0.20;;;-1.00;99.90;;;;;;5054404;28;20783;-80
2022/12/08 02:10:51;;;;;;;0.20;0.20;;;-1.10;99.90;;;;;;5055271;28;20037;-80
2022/12/08 02:13:19;;;;;;;0.13;0.13;;;-1.00;99.90;;;;;;5067679;28;20575;-80
2022/12/08 02:15:45;;;;;;;0.45;0.45;;;-0.90;99.90;;;;;;5051519;28;20742;-79
2022/12/08 02:18:32;;;;;;;0.30;0.30;;;-0.90;99.90;;;;;;5059864;28;20098;-80
2022/12/08 02:21:24;;;;;;;0.20;0.20;;;-1.00;99.90;;;;;;5053425;28;21071;-80
2022/12/08 02:23:58;;;;;;;0.30;0.30;;;-0.90;99.90;;;;;;5061719;28;20160;-80
2022/12/08 02:26:27;;;;;;;0.10;0.10;;;-1.00;99.90;;;;;;5057629;28;20037;-79
2022/12/08 02:29:17;;;;;;;0.20;0.20;;;-0.80;99.90;;;;;;5066868;28;20472;-78
2022/12/08 02:31:52;;;;;;;0.10;0.10;;;-1.00;99.90;;;;;;5063410;28;20029;-78
2022/12/08 02:34:31;;;;;;;0.82;0.82;;;-0.90;99.90;;;;;;5061323;28;20762;-78
2022/12/08 02:37:17;;;;;;;0.13;0.13;;;-0.80;99.90;;;;;;5065823;28;20033;-78
2022/12/08 02:39:52;;;;;;;0.55;0.47;;;-0.80;99.90;;;;;;5062179;28;20746;-78
2022/12/08 02:42:30;;;;;;;2.30;1.02;;;-0.70;99.90;;;;;;5062856;28;20036;-79
2022/12/08 02:45:17;;;;;;;0.10;0.10;;;-0.70;99.90;;;;;;5058848;28;20028;-79
2022/12/08 02:47:44;;;;;;;0.10;0.10;;;-0.60;99.90;;;;;;5061187;28;20039;-79
2022/12/08 02:50:10;;;;;;;0.10;0.10;;;-0.60;99.90;;;;;;5058972;28;20037;-80
2022/12/08 02:52:39;;;;;;;0.30;0.30;;;-0.50;99.90;;;;;;5068063;28;20271;-80
2022/12/08 02:55:10;;;;;;;0.40;0.40;;;-0.50;99.90;;;;;;5055545;28;20036;-79
2022/12/08 02:57:50;;;;;;;0.65;0.65;;;-0.50;99.90;;;;;;5062435;28;20032;-80
2022/12/08 03:00:19;;;;;;;1.90;0.95;;;-0.50;99.90;;;;;;5054305;28;20035;-80
2022/12/08 03:03:08;;;;;;;0.52;0.52;;;-0.40;99.90;;;;;;5052259;28;20036;-80
2022/12/08 03:05:34;;;;;;;0.10;0.10;;;-0.40;99.90;;;;;;5060031;28;20051;-79
2022/12/08 03:08:12;;;;;;;0.20;0.20;;;-0.30;99.90;;;;;;5070465;28;20474;-80
2022/12/08 03:11:09;;;;;;;0.40;0.40;;;-0.30;99.90;;;;;;5060865;28;20032;-80
2022/12/08 03:13:45;;;;;;;0.47;0.47;;;-0.30;99.90;;;;;;5063020;28;20032;-80
2022/12/08 03:16:14;;;;;;;0.10;0.10;;;-0.30;99.90;;;;;;5058726;28;20033;-80
2022/12/08 03:18:46;;;;;;;1.60;0.70;;;-0.30;99.90;;;;;;5063363;28;20055;-79
2022/12/08 03:21:15;;;;;;;0.35;0.35;;;-0.30;99.90;;;;;;5051290;28;20029;-78
2022/12/08 03:23:43;;;;;;;1.92;0.52;;;-0.30;99.90;;;;;;5065043;28;20044;-79
2022/12/08 03:26:28;;;;;;;0.10;0.10;;;-0.30;99.90;;;;;;5068321;28;20911;-80
2022/12/08 03:28:54;;;;;;;0.47;0.45;;;-0.30;99.90;;;;;;5062767;28;20020;-79
2022/12/08 03:31:24;;;;;;;0.10;0.10;;;-0.30;99.90;;;;;;5054253;28;20636;-78
2022/12/08 03:33:53;;;;;;;0.10;0.10;;;-0.20;99.90;;;;;;5066563;28;20029;-79
2022/12/08 03:36:19;;;;;;;0.20;0.20;;;-0.20;99.90;;;;;;5068387;28;20058;-79
2022/12/08 03:38:51;;;;;;;0.10;0.10;;;-0.10;99.90;;;;;;5068216;28;20636;-81
2022/12/08 03:41:19;;;;;;;3.22;0.95;;;-0.20;99.90;;;;;;5057252;28;20024;-78
2022/12/08 03:43:58;;;;;;;0.20;0.20;;;-0.20;99.90;;;;;;5063654;28;20025;-78
2022/12/08 03:46:25;;;;;;;0.10;0.10;;;-0.20;99.90;;;;;;5053464;28;20039;-78
2022/12/08 03:48:51;;;;;;;0.00;0.00;;;-0.20;99.90;;;;;;5066642;28;20024;-79
2022/12/08 03:51:17;;;;;;;0.10;0.10;;;-0.20;99.90;;;;;;5053013;28;20035;-79
2022/12/08 03:53:44;;;;;;;1.10;0.73;;;-0.10;99.90;;;;;;5078591;28;20021;-79
2022/12/08 03:56:18;;;;;;;0.10;0.10;;;-0.10;99.90;;;;;;5052104;28;20409;-79
2022/12/08 03:58:44;;;;;;;0.20;0.20;;;0.00;99.90;;;;;;5059095;28;20543;-79
2022/12/08 04:01:10;;;;;;;0.20;0.20;;;-0.10;99.90;;;;;;5066935;28;20036;-79
2022/12/08 04:03:36;;;;;;;0.10;0.10;;;-0.10;99.90;;;;;;5057091;28;20016;-80
2022/12/08 04:06:02;;;;;;;0.40;0.40;;;0.00;99.90;;;;;;5057355;28;20056;-79
2022/12/08 04:08:27;;;;;;;0.10;0.10;;;0.00;99.90;;;;;;5076669;28;20028;-79
2022/12/08 04:10:53;;;;;;;0.10;0.10;;;0.00;99.90;;;;;;5065883;28;20039;-79
2022/12/08 04:13:19;;;;;;;0.20;0.20;;;0.00;99.90;;;;;;5059530;28;20035;-80
2022/12/08 04:15:47;;;;;;;0.30;0.30;;;0.00;99.90;;;;;;5054017;28;20780;-80
2022/12/08 04:18:13;;;;;;;0.30;0.30;;;0.00;99.90;;;;;;5055362;28;20040;-79
2022/12/08 04:20:40;;;;;;;0.28;0.28;;;0.00;99.90;;;;;;5059938;28;20047;-79
2022/12/08 04:23:06;;;;;;;0.90;0.90;;;-0.10;99.90;;;;;;5057350;28;20039;-79
2022/12/08 04:25:32;;;;;;;0.47;0.47;;;0.00;99.90;;;;;;5052117;28;20037;-80
2022/12/08 04:27:58;;;;;;;0.30;0.30;;;-0.10;99.90;;;;;;5066949;28;20846;-79
2022/12/08 04:30:23;;;;;;;0.10;0.10;;;-0.10;99.90;;;;;;5053122;28;20033;-79
2022/12/08 04:32:49;;;;;;;0.10;0.10;;;-0.10;99.90;;;;;;5055971;28;20496;-80
2022/12/08 04:35:15;;;;;;;0.70;0.47;;;-0.20;99.90;;;;;;5054951;28;20466;-79
2022/12/08 04:37:43;;;;;;;1.00;0.75;;;-0.20;99.90;;;;;;5064264;28;20036;-79
2022/12/08 04:40:09;;;;;;;0.10;0.10;;;-0.20;99.90;;;;;;5055333;28;20036;-80
2022/12/08 04:42:35;;;;;;;0.52;0.52;;;-0.20;99.90;;;;;;5060314;28;20024;-80
2022/12/08 04:45:01;;;;;;;1.47;1.37;;;-0.20;99.90;;;;;;5054544;28;20093;-80
2022/12/08 04:47:27;;;;;;;0.60;0.60;;;-0.20;99.90;;;;;;5055747;28;20028;-80
2022/12/08 04:49:52;;;;;;;0.43;0.43;;;-0.10;99.90;;;;;;5063622;28;20032;-79
2022/12/08 04:52:18;;;;;;;0.80;0.80;;;-0.10;99.90;;;;;;5063801;28;20052;-80
2022/12/08 04:54:44;;;;;;;0.30;0.30;;;-0.10;99.90;;;;;;5061018;28;20035;-78
2022/12/08 04:57:09;;;;;;;1.23;1.20;;;-0.10;99.90;;;;;;5055962;28;20045;-79
2022/12/08 04:59:35;;;;;;;0.63;0.63;;;0.00;99.90;;;;;;5053066;28;20032;-79
2022/12/08 05:02:01;;;;;;;0.10;0.10;;;0.00;99.90;;;;;;5065689;28;20475;-80
2022/12/08 05:04:26;;;;;;;0.80;0.80;;;-0.10;99.90;;;;;;5062328;28;20052;-79
2022/12/08 05:06:52;;;;;;;0.10;0.10;;;-0.10;99.90;;;;;;5068537;28;20126;-79
2022/12/08 05:09:18;;;;;;;3.55;0.95;;;-0.10;99.90;;;;;;5062684;28;20029;-79
2022/12/08 05:11:43;;;;;;;0.20;0.20;;;-0.10;99.90;;;;;;5066172;28;20028;-80
2022/12/08 05:14:14;;;;;;;0.10;0.10;;;-0.10;99.90;;;;;;5053885;28;20862;-80
2022/12/08 05:16:40;;;;;;;2.17;1.42;;;-0.10;99.90;;;;;;5057263;28;20028;-81
2022/12/08 05:19:07;;;;;;;0.25;0.25;;;-0.20;99.90;;;;;;5062076;28;20087;-81
2022/12/08 05:21:33;;;;;;;0.20;0.20;;;-0.10;99.90;;;;;;5066237;28;20142;-81
2022/12/08 05:23:58;;;;;;;0.20;0.20;;;-0.20;99.90;;;;;;5067098;28;20026;-81
2022/12/08 05:26:24;;;;;;;0.20;0.20;;;-0.20;99.90;;;;;;5061547;28;20040;-81
2022/12/08 05:28:50;;;;;;;0.10;0.10;;;-0.20;99.90;;;;;;5048303;28;20463;-81
2022/12/08 05:31:16;;;;;;;0.10;0.10;;;-0.20;99.90;;;;;;5061850;28;20551;-79
2022/12/08 05:33:43;;;;;;;0.38;0.38;;;-0.30;99.90;;;;;;5050535;28;20024;-79
2022/12/08 05:36:13;;;;;;;0.00;0.00;;;-0.30;99.90;;;;;;5059755;28;20064;-80
2022/12/08 05:38:39;;;;;;;1.23;1.13;;;-0.40;99.90;;;;;;5053712;28;20033;-80
2022/12/08 05:41:06;;;;;;;0.30;0.30;;;-0.50;99.90;;;;;;5052135;28;20040;-79
2022/12/08 05:43:31;;;;;;;;;;;-0.60;99.90;;;;;;5062116;28;20024;-78
2022/12/08 05:45:57;;;;;;;0.17;0.17;;;-0.50;99.90;;;;;;5053820;28;20456;-83
2022/12/08 05:48:23;;;;;;;0.30;0.30;;;-0.60;99.90;;;;;;5052971;28;20040;-86
2022/12/08 05:50:49;;;;;;;0.10;0.10;;;-0.60;99.90;;;;;;5060677;28;20095;-81
2022/12/08 05:53:17;;;;;;;0.10;0.10;;;-0.60;99.90;;;;;;5050386;28;20040;-81
2022/12/08 05:55:43;;;;;;;0.45;0.45;;;-0.60;99.90;;;;;;5068555;28;20515;-80
2022/12/08 05:58:14;;;;;;;0.32;0.32;;;-0.50;99.90;;;;;;5069568;28;20032;-82
2022/12/08 06:00:41;;;;;;;0.10;0.10;;;-0.50;99.90;;;;;;5067245;28;20368;-80
2022/12/08 06:03:07;;;;;;;0.10;0.10;;;-0.60;99.90;;;;;;5062918;28;20036;-82
2022/12/08 06:05:33;;;;;;;0.10;0.10;;;-0.60;99.90;;;;;;5058347;28;20053;-82
2022/12/08 06:07:59;;;;;;;0.10;0.10;;;-0.70;99.90;;;;;;5058889;28;20291;-83
2022/12/08 06:10:25;;;;;;;0.10;0.10;;;-0.60;99.90;;;;;;5051133;28;20040;-83
2022/12/08 06:12:51;;;;;;;1.35;1.25;;;-0.60;99.90;;;;;;5056889;28;20471;-86
2022/12/08 06:15:17;;;;;;;0.10;0.10;;;-0.70;99.90;;;;;;5063999;28;20883;-82
2022/12/08 06:17:42;;;;;;;0.10;0.10;;;-0.70;99.90;;;;;;5063877;28;20070;-81
2022/12/08 06:20:08;;;;;;;0.47;0.47;;;-0.80;99.90;;;;;;5061411;28;20215;-81
2022/12/08 06:22:34;;;;;;;0.10;0.10;;;-0.80;99.90;;;;;;5059336;28;20381;-81
2022/12/08 06:25:00;;;;;;;0.95;0.55;;;-0.70;99.90;;;;;;5054992;28;20032;-78
2022/12/08 06:27:26;;;;;;;0.88;0.88;;;-0.70;99.90;;;;;;5062986;28;20045;-83
2022/12/08 06:29:51;;;;;;;0.10;0.10;;;-0.50;99.90;;;;;;5056600;28;20151;-83
2022/12/08 06:32:17;;;;;;;0.22;0.22;;;-0.50;99.90;;;;;;5052983;28;20140;-80
2022/12/08 06:34:43;;;;;;;0.25;0.25;;;-0.40;99.90;;;;;;5060349;28;20028;-80
2022/12/08 06:37:08;;;;;;;0.43;0.43;;;-0.40;99.90;;;;;;5064017;28;20586;-79
2022/12/08 06:39:34;;;;;;;0.22;0.22;;;-0.40;99.90;;;;;;5063778;28;20039;-80
2022/12/08 06:44:45;;;;;;;0.20;0.20;;;-0.20;99.90;;;;;;5064512;28;20048;-82
2022/12/08 06:47:11;;;;;;;0.40;0.40;;;-0.10;99.90;;;;;;5054949;28;20503;-80
2022/12/08 06:49:36;;;;;;;0.13;0.13;;;-0.10;99.90;;;;;;5065110;28;20929;-81
2022/12/08 06:52:02;;;;;;;0.10;0.10;;;0.00;99.90;;;;;;5066457;28;20150;-80
2022/12/08 06:54:28;;;;;;;3.67;0.70;;;0.00;99.90;;;;;;5065955;28;20033;-80
2022/12/08 06:56:54;;;;;;;0.30;0.30;;;0.10;99.90;;;;;;5059788;28;20427;-81
2022/12/08 06:59:19;;;;;;;0.17;0.17;;;0.00;99.90;;;;;;5060303;28;20032;-81
2022/12/08 07:01:45;;;;;;;0.10;0.10;;;0.10;99.90;;;;;;5067083;28;20040;-81
2022/12/08 07:04:11;;;;;;;0.10;0.10;;;0.10;99.90;;;;;;5067934;28;20112;-82
2022/12/08 07:06:37;;;;;;;0.20;0.20;;;0.10;99.90;;;;;;5067797;28;20088;-83
2022/12/08 07:09:03;;;;;;;0.75;0.75;;;0.10;99.90;;;;;;5066722;28;20029;-79
2022/12/08 07:11:29;;;;;;;0.35;0.35;;;0.20;99.90;;;;;;5065329;28;20028;-80
2022/12/08 07:13:56;;;;;;;0.10;0.10;;;0.20;99.90;;;;;;5065309;28;20025;-80
2022/12/08 07:16:22;;;;;;;0.20;0.20;;;0.20;99.90;;;;;;5060330;28;20139;-79
2022/12/08 07:18:48;;;;;;;0.40;0.40;;;0.30;99.90;;;;;;5061541;28;20032;-81
2022/12/08 07:21:14;;;;;;;0.35;0.35;;;0.30;99.90;;;;;;5054007;28;20035;-80
2022/12/08 07:23:40;;;;;;;1.33;1.33;;;0.30;99.90;;;;;;5058111;28;20065;-80
2022/12/08 07:26:09;;;;;;;0.33;0.33;;;0.40;99.90;;;;;;5058676;28;20040;-80
2022/12/08 07:28:37;;;;;;;2.17;1.45;;;0.40;99.90;;;;;;5050360;28;20029;-80
2022/12/08 07:31:03;;;;;;;0.10;0.10;;;0.50;99.90;;;;;;5058297;28;20021;-79
2022/12/08 07:33:30;;;;;;;0.03;0.03;;;0.60;99.90;;;;;;5059035;28;20021;-80
2022/12/08 07:35:59;;;;;;;0.50;0.50;;;0.50;99.90;;;;;;5067735;28;20068;-81
2022/12/08 07:38:25;;;;;;;0.10;0.10;;;0.60;99.90;;;;;;5067110;28;20067;-79
2022/12/08 07:40:52;;;;;;;0.10;0.10;;;0.60;99.90;;;;;;5048850;28;20562;-77
2022/12/08 07:43:18;;;;;;;0.60;0.60;;;0.60;99.90;;;;;;5061337;28;20491;-78
2022/12/08 07:45:44;;;;;;;0.57;0.57;;;0.60;99.90;;;;;;5066969;28;20064;-79
2022/12/08 07:48:10;;;;;;;0.20;0.20;;;0.60;99.90;;;;;;5054692;28;20121;-79
2022/12/08 07:50:36;;;;;;;1.10;1.00;;;0.60;99.90;;;;;;5055743;28;20126;-79
2022/12/08 07:53:01;;;;;;;0.10;0.10;;;0.60;99.90;;;;;;5060302;28;20171;-79
2022/12/08 07:55:27;;;;;;;0.45;0.45;;;0.60;99.90;;;;;;5048719;28;20029;-79
2022/12/08 07:57:53;;;;;;;0.22;0.22;;;0.60;99.90;;;;;;5062527;28;20032;-79
2022/12/08 08:00:19;;;;;;;0.38;0.38;;;0.60;99.90;;;;;;5066737;28;20036;-79
2022/12/08 08:02:45;;;;;;;0.50;0.50;;;0.60;99.90;;;;;;5049989;28;20139;-79
2022/12/08 08:05:11;;;;;;;0.10;0.10;;;0.60;99.90;;;;;;5049190;28;20159;-79
2022/12/08 08:07:38;;;;;;;0.10;0.10;;;0.60;99.90;;;;;;5063309;28;20521;-78
2022/12/08 08:10:05;;;;;;;0.00;0.00;;;0.60;99.90;;;;;;5063664;28;20506;-79
2022/12/08 08:12:31;;;;;;;;;;;0.60;99.90;;;;;;5054396;28;20119;-79
2022/12/08 08:14:57;;;;;;;0.30;0.30;;;0.60;99.90;;;;;;5063887;28;20595;-79
2022/12/08 08:17:23;;;;;;;0.98;0.38;;;0.60;99.90;;;;;;5048021;28;20138;-79
2022/12/08 08:19:48;;;;;;;0.38;0.38;;;0.70;99.90;;;;;;5047485;28;20067;-78
2022/12/08 08:22:14;;;;;;;1.40;1.30;;;0.70;99.90;;;;;;5057313;28;20543;-79
2022/12/08 08:24:40;;;;;;;0.20;0.20;;;0.70;99.90;;;;;;5059407;28;20033;-79
2022/12/08 08:27:05;;;;;;;0.20;0.20;;;0.80;99.90;;;;;;5060045;28;20654;-79
2022/12/08 08:29:31;;;;;;;0.10;0.10;;;0.90;99.90;;;;;;5054807;28;20071;-78
2022/12/08 08:31:57;;;;;;;0.22;0.22;;;0.90;99.90;;;;;;5060252;28;20029;-79
2022/12/08 08:34:22;;;;;;;0.10;0.10;;;0.90;99.90;;;;;;5061678;28;20071;-78
2022/12/08 08:36:48;;;;;;;0.10;0.10;;;1.00;99.90;;;;;;5061397;28;20028;-79
2022/12/08 08:39:14;;;;;;;0.10;0.10;;;1.00;99.90;;;;;;5052127;28;20029;-78
2022/12/08 08:41:40;;;;;;;0.50;0.50;;;1.10;99.90;;;;;;5056079;28;20036;-79
2022/12/08 08:44:06;;;;;;;0.00;0.00;;;1.20;99.90;;;;;;5060202;28;20033;-79
2022/12/08 08:46:32;;;;;;;0.15;0.15;;;1.10;99.90;;;;;;5058237;28;20042;-78
2022/12/08 08:48:58;;;;;;;0.22;0.22;;;1.20;99.90;;;;;;5064969;28;20121;-79
2022/12/08 08:51:23;;;;;;;0.10;0.10;;;1.20;99.90;;;;;;5066350;28;20024;-79
2022/12/08 08:53:49;;;;;;;0.15;0.15;;;1.20;99.90;;;;;;5064400;28;20032;-80
2022/12/08 08:56:19;;;;;;;0.10;0.10;;;1.20;99.90;;;;;;5065609;28;20428;-79
2022/12/08 08:58:47;;;;;;;0.17;0.17;;;1.20;99.90;;;;;;5061101;28;20021;-78
2022/12/08 09:01:21;;;;;;;0.32;0.32;;;1.30;99.90;;;;;;5063047;28;20028;-78
2022/12/08 09:03:48;;;;;;;0.13;0.13;;;1.30;99.90;;;;;;5062837;28;20024;-78
2022/12/08 09:06:14;;;;;;;0.10;0.10;;;1.20;99.90;;;;;;5067349;28;20052;-79
2022/12/08 09:08:41;;;;;;;0.10;0.10;;;1.20;99.90;;;;;;5063595;28;20090;-79
2022/12/08 09:11:07;;;;;;;0.30;0.30;;;1.30;99.90;;;;;;5062927;28;20032;-79
2022/12/08 09:13:33;;;;;;;0.50;0.50;;;1.30;99.90;;;;;;5058186;28;20528;-78
2022/12/08 09:16:01;;;;;;;0.10;0.10;;;1.40;99.90;;;;;;5061359;28;20032;-78
2022/12/08 09:18:27;;;;;;;0.10;0.10;;;1.40;99.90;;;;;;5057394;28;20854;-79
2022/12/08 09:20:53;;;;;;;0.30;0.30;;;1.50;99.90;;;;;;5060470;28;20029;-79
2022/12/08 09:23:19;;;;;;;0.63;0.63;;;1.60;99.90;;;;;;5058004;28;20090;-79
2022/12/08 09:25:45;;;;;;;0.10;0.10;;;1.70;99.90;;;;;;5058502;28;20032;-78
2022/12/08 09:28:11;;;;;;;0.10;0.10;;;1.80;99.90;;;;;;5056799;28;20020;-78
2022/12/08 09:30:38;;;;;;;0.10;0.10;;;1.90;99.90;;;;;;5057635;28;20035;-78
2022/12/08 09:33:03;;;;;;;0.50;0.50;;;2.00;99.90;;;;;;5054186;28;20028;-78
2022/12/08 09:35:29;;;;;;;0.10;0.10;;;2.00;99.90;;;;;;5059719;28;20420;-78
2022/12/08 09:37:55;;;;;;;0.20;0.20;;;2.00;99.90;;;;;;5058612;28;20029;-78
2022/12/08 09:40:23;;;;;;;1.15;0.82;;;2.00;99.90;;;;;;5056627;28;20842;-79
2022/12/08 09:43:09;;;;;;;0.10;0.10;;;2.00;99.90;;;;;;5054118;28;20033;-78
2022/12/08 09:45:35;;;;;;;0.10;0.10;;;2.10;99.90;;;;;;5065577;28;20036;-78
2022/12/08 09:48:03;;;;;;;0.10;0.10;;;2.20;99.90;;;;;;5064719;28;20040;-78
2022/12/08 09:50:45;;;;;;;0.10;0.10;;;2.30;99.90;;;;;;5064894;28;20040;-78
2022/12/08 09:53:15;;;;;;;0.10;0.10;;;2.40;99.90;;;;;;5065623;28;20032;-77
2022/12/08 09:55:53;;;;;;;0.10;0.10;;;2.40;99.90;;;;;;5062990;28;20025;-77
2022/12/08 09:58:44;;;;;;;0.28;0.28;;;2.40;99.90;;;;;;5063440;28;20505;-77
2022/12/08 10:01:11;;;;;;;0.85;0.85;;;2.50;99.90;;;;;;5057688;28;20051;-78
2022/12/08 10:03:37;;;;;;;0.35;0.35;;;2.60;99.90;;;;;;5065440;28;20115;-77
2022/12/08 10:06:23;;;;;;;0.10;0.10;;;2.60;99.90;;;;;;5068872;28;20055;-77
2022/12/08 10:09:28;;;;;;;0.00;0.00;;;2.80;99.90;;;;;;5061544;28;20040;-77
2022/12/08 10:12:15;;;;;;;0.10;0.10;;;2.90;99.90;;;;;;5057832;28;20120;-77
2022/12/08 10:15:07;;;;;;;0.20;0.20;;;3.50;99.90;;;;;;5059263;28;20640;-77
2022/12/08 10:17:40;;;;;;;2.10;1.58;;;3.90;99.90;;;;;;5038800;28;20788;-78
2022/12/08 10:20:16;;;;;;;0.20;0.20;;;4.00;99.90;;;;;;5061412;28;20039;-77
2022/12/08 10:22:44;;;;;;;0.30;0.30;;;4.10;99.90;;;;;;5066576;28;20040;-78
2022/12/08 10:25:41;;;;;;;0.10;0.10;;;3.90;99.90;;;;;;5059730;28;20037;-77
2022/12/08 10:28:08;;;;;;;0.32;0.32;;;3.70;99.90;;;;;;5061101;28;20044;-77
2022/12/08 10:30:34;;;;;;;0.28;0.28;;;3.50;99.90;;;;;;5066569;28;20055;-78
2022/12/08 10:32:59;;;;;;;0.10;0.10;;;3.50;99.90;;;;;;5060405;28;20068;-78
2022/12/08 10:35:51;;;;;;;0.10;0.10;;;3.40;99.90;;;;;;5062512;28;20741;-77
2022/12/08 10:38:36;;;;;;;0.80;0.80;;;3.40;99.90;;;;;;5062702;28;20036;-78
2022/12/08 10:41:10;;;;;;;0.98;0.77;;;3.40;99.90;;;;;;5055361;28;20504;-77
2022/12/08 10:43:46;;;;;;;0.25;0.25;;;3.40;99.90;;;;;;5063638;28;20036;-78
2022/12/08 10:46:31;;;;;;;0.15;0.15;;;3.40;99.90;;;;;;5057972;28;20044;-77
2022/12/08 10:49:05;;;;;;;0.10;0.10;;;3.30;99.90;;;;;;5067134;28;20134;-78
2022/12/08 10:51:40;;;;;;;0.13;0.13;;;3.20;99.90;;;;;;5067808;28;20035;-77
2022/12/08 10:54:32;;;;;;;0.10;0.10;;;3.20;99.90;;;;;;5067059;28;20035;-78
2022/12/08 10:56:58;;;;;;;0.15;0.15;;;3.20;99.90;;;;;;5064362;28;20040;-78
2022/12/08 10:59:28;;;;;;;0.20;0.20;;;3.30;99.90;;;;;;5067538;28;20052;-78
2022/12/08 11:01:55;;;;;;;0.10;0.10;;;3.30;99.90;;;;;;5062286;28;20040;-78
2022/12/08 11:04:37;;;;;;;0.52;0.52;;;3.40;99.90;;;;;;5064276;28;20066;-78
2022/12/08 11:07:07;;;;;;;0.47;0.47;;;3.50;99.90;;;;;;5069575;28;20071;-78
2022/12/08 11:09:38;;;;;;;0.15;0.15;;;3.40;99.90;;;;;;5065145;28;20704;-78
2022/12/08 11:12:16;;;;;;;0.25;0.25;;;3.50;99.90;;;;;;5062857;28;20059;-78
2022/12/08 11:14:41;;;;;;;0.17;0.17;;;3.60;99.90;;;;;;5061208;28;20374;-78
2022/12/08 11:17:22;;;;;;;0.57;0.57;;;3.70;99.90;;;;;;5063013;28;20043;-77
2022/12/08 11:19:59;;;;;;;0.63;0.63;;;3.80;99.90;;;;;;5063811;28;20038;-78
2022/12/08 11:22:28;;;;;;;0.73;0.73;;;3.80;99.90;;;;;;5061293;28;20111;-78
2022/12/08 11:25:17;;;;;;;0.28;0.28;;;3.90;99.90;;;;;;5063698;28;20060;-79
2022/12/08 11:27:46;;;;;;;0.13;0.13;;;3.90;99.90;;;;;;5054577;28;20076;-80
2022/12/08 11:30:16;;;;;;;0.10;0.10;;;3.90;99.90;;;;;;5069138;28;20458;-80
2022/12/08 11:32:44;;;;;;;0.10;0.10;;;4.00;99.90;;;;;;5057058;28;20028;-79
2022/12/08 11:35:21;;;;;;;0.35;0.35;;;4.00;99.90;;;;;;5065416;28;20051;-78
2022/12/08 11:37:47;;;;;;;0.15;0.15;;;4.10;99.90;;;;;;5054441;28;20033;-78
2022/12/08 11:40:23;;;;;;;0.20;0.20;;;4.10;99.90;;;;;;5057475;28;20135;-78
2022/12/08 11:43:08;;;;;;;0.50;0.50;;;4.10;99.90;;;;;;5052231;28;20480;-78
2022/12/08 11:45:35;;;;;;;0.80;0.80;;;4.00;99.90;;;;;;5064953;28;20679;-78
2022/12/08 11:48:26;;;;;;;0.50;0.50;;;4.10;99.90;;;;;;5067424;28;20206;-78
2022/12/08 11:51:04;;;;;;;0.20;0.20;;;4.10;99.90;;;;;;5098217;28;20033;-78
2022/12/08 11:53:45;;;;;;;0.98;0.68;;;4.00;99.90;;;;;;5065132;28;20024;-78
2022/12/08 11:56:31;;;;;;;0.20;0.20;;;4.10;99.90;;;;;;5059961;28;20029;-78
2022/12/08 11:59:01;;;;;;;1.63;1.52;;;4.10;99.90;;;;;;5063704;28;20025;-78
2022/12/08 12:01:27;;;;;;;0.55;0.52;;;4.20;99.90;;;;;;5066936;28;20028;-80
2022/12/08 12:04:26;;;;;;;0.17;0.17;;;4.30;99.90;;;;;;5061482;28;20085;-79
2022/12/08 12:07:10;;;;;;;0.28;0.28;;;4.40;99.90;;;;;;5067167;28;20052;-78
2022/12/08 12:09:36;;;;;;;0.98;0.95;;;4.60;99.90;;;;;;5067746;28;20688;-78
2022/12/08 12:12:15;;;;;;;0.22;0.22;;;4.70;99.90;;;;;;5063226;28;20041;-78
2022/12/08 12:14:49;;;;;;;0.15;0.15;;;4.80;99.90;;;;;;5058627;28;20071;-79
2022/12/08 12:17:45;;;;;;;0.10;0.10;;;4.80;99.90;;;;;;5093809;28;20038;-78
2022/12/08 12:20:43;;;;;;;0.10;0.10;;;4.90;99.90;;;;;;5064413;28;20567;-78
2022/12/08 12:23:31;;;;;;;0.32;0.32;;;5.00;99.90;;;;;;5053969;28;20048;-77
2022/12/08 12:26:02;;;;;;;0.13;0.13;;;5.10;99.90;;;;;;5057125;28;20025;-77
2022/12/08 12:28:38;;;;;;;0.35;0.35;;;5.00;99.90;;;;;;5056495;28;20032;-78
2022/12/08 12:31:05;;;;;;;0.10;0.10;;;5.00;99.90;;;;;;5054390;28;20036;-78
2022/12/08 12:33:31;;;;;;;;;;;5.00;99.90;;;;;;5057547;28;20305;-77
2022/12/08 12:36:02;;;;;;;0.25;0.25;;;5.00;99.90;;;;;;5064912;28;20386;-79
2022/12/08 12:41:30;;;;;;;0.20;0.20;;;5.00;99.90;;;;;;5058048;28;20614;-78
2022/12/08 12:44:11;;;;;;;1.17;1.08;;;5.10;99.90;;;;;;5061638;28;20077;-78
2022/12/08 12:46:44;;;;;;;0.47;0.47;;;5.10;99.90;;;;;;5062413;28;20141;-78
2022/12/08 12:49:38;;;;;;;0.17;0.17;;;5.20;99.90;;;;;;5062481;28;20055;-78
2022/12/08 12:52:19;;;;;;;0.10;0.10;;;5.20;99.90;;;;;;5057708;28;20028;-79
2022/12/08 12:55:10;;;;;;;0.10;0.10;;;5.30;99.90;;;;;;5063906;28;20537;-78
2022/12/08 12:57:38;;;;;;;1.17;0.60;;;5.40;99.90;;;;;;5050678;28;20045;-78
2022/12/08 13:00:04;;;;;;;0.17;0.17;;;5.40;99.90;;;;;;5060870;28;20029;-78
2022/12/08 13:02:34;;;;;;;0.25;0.25;;;5.60;99.90;;;;;;5060218;28;20043;-79
2022/12/08 13:05:11;;;;;;;0.22;0.22;;;5.70;99.90;;;;;;5061051;28;20661;-79
2022/12/08 13:08:02;;;;;;;0.52;0.52;;;5.80;99.90;;;;;;5066404;28;20055;-78
2022/12/08 13:10:37;;;;;;;0.10;0.10;;;6.10;99.90;;;;;;5052487;28;20040;-78
2022/12/08 13:13:16;;;;;;;3.75;1.23;;;6.40;99.90;;;;;;5055178;28;20021;-79
2022/12/08 13:15:45;;;;;;;0.28;0.20;;;6.50;99.90;;;;;;5060684;28;20051;-79
2022/12/08 13:18:24;;;;;;;0.28;0.28;;;6.40;99.90;;;;;;5060054;28;20060;-79